Time;durP1;ratioP1;P1;durP2;ratioP2;P2;SDS_P1;SDS_P2;PMS_P1;PMS_P2;Temp;Humidity;BMP_temperature;BMP_pressure;BME280_temperature;BME280_humidity;BME280_pressure;Samples;Min_cycle;Max_cycle;Signal;HPM_P1;HPM_P2
2023/07/12 00:01:25;;;;;;;3.73;2.00;;;;;;;;;;5055507;28;20183;-68
2023/07/12 00:03:50;;;;;;;5.10;2.23;;;;;;;;;;5055286;28;20178;-68
2023/07/12 00:06:18;;;;;;;4.60;2.40;;;;;;;;;;5055181;28;20202;-68
2023/07/12 00:08:44;;;;;;;4.57;2.27;;;;;;;;;;5037173;28;20179;-69
2023/07/12 00:11:14;;;;;;;6.47;2.43;;;;;;;;;;5055113;28;20178;-68
2023/07/12 00:13:41;;;;;;;2.83;2.30;;;;;;;;;;5055391;28;20167;-68
2023/07/12 00:16:17;;;;;;;3.50;2.33;;;;;;;;;;5054082;28;20377;-68
2023/07/12 00:18:43;;;;;;;4.25;2.30;;;;;;;;;;5054149;28;20803;-68
2023/07/12 00:21:11;;;;;;;3.58;2.45;;;;;;;;;;5036139;28;20414;-68
2023/07/12 00:23:37;;;;;;;3.25;2.22;;;;;;;;;;5054088;28;20377;-68
2023/07/12 00:26:08;;;;;;;4.15;2.25;;;;;;;;;;5035845;28;20390;-68
2023/07/12 00:28:34;;;;;;;3.03;2.20;;;;;;;;;;5054959;28;20163;-68
2023/07/12 00:31:00;;;;;;;2.50;2.07;;;;;;;;;;5054572;28;20217;-69
2023/07/12 00:33:26;;;;;;;2.33;1.90;;;;;;;;;;5054615;28;20181;-69
2023/07/12 00:35:52;;;;;;;3.20;2.00;;;;;;;;;;5036670;28;20194;-68
2023/07/12 00:38:22;;;;;;;2.03;1.83;;;;;;;;;;5036662;28;20179;-68
2023/07/12 00:40:48;;;;;;;3.47;2.13;;;;;;;;;;5055139;28;20536;-68
2023/07/12 00:43:22;;;;;;;2.77;1.97;;;;;;;;;;5054559;28;20261;-68
2023/07/12 00:45:50;;;;;;;2.60;2.10;;;;;;;;;;5053692;28;20227;-69
2023/07/12 00:48:16;;;;;;;4.53;2.00;;;;;;;;;;5054463;28;20611;-68
2023/07/12 00:50:42;;;;;;;3.73;2.13;;;;;;;;;;5054644;28;20294;-69
2023/07/12 00:53:15;;;;;;;3.93;1.97;;;;;;;;;;5054674;28;20175;-68
2023/07/12 00:56:01;;;;;;;4.43;2.37;;;;;;;;;;5054013;28;20219;-68
2023/07/12 00:58:30;;;;;;;5.43;2.27;;;;;;;;;;5054330;28;20549;-68
2023/07/12 01:00:57;;;;;;;3.20;2.23;;;;;;;;;;5036254;28;20188;-68
2023/07/12 01:03:24;;;;;;;2.90;1.90;;;;;;;;;;5054317;28;20221;-69
2023/07/12 01:05:50;;;;;;;2.67;1.70;;;;;;;;;;5054081;28;20680;-68
2023/07/12 01:08:16;;;;;;;2.57;1.93;;;;;;;;;;5054239;28;20178;-68
2023/07/12 01:10:42;;;;;;;2.73;2.00;;;;;;;;;;5035996;28;20199;-68
2023/07/12 01:13:09;;;;;;;3.10;1.93;;;;;;;;;;5036159;28;20236;-68
2023/07/12 01:15:36;;;;;;;3.87;2.00;;;;;;;;;;5053794;28;20194;-68
2023/07/12 01:18:02;;;;;;;3.97;2.20;;;;;;;;;;5078017;22;20224;-65
2023/07/12 01:20:28;;;;;;;4.27;2.10;;;;;;;;;;5054262;28;20179;-65
2023/07/12 01:22:55;;;;;;;3.33;2.00;;;;;;;;;;5054241;28;20178;-66
2023/07/12 01:25:38;;;;;;;4.00;2.10;;;;;;;;;;5035937;28;20183;-65
2023/07/12 01:28:04;;;;;;;4.47;1.90;;;;;;;;;;5053617;28;20198;-65
2023/07/12 01:30:31;;;;;;;2.23;2.00;;;;;;;;;;5053597;28;20691;-66
2023/07/12 01:32:57;;;;;;;2.73;1.80;;;;;;;;;;5053707;28;20261;-65
2023/07/12 01:35:23;;;;;;;5.33;2.13;;;;;;;;;;5035687;28;20269;-66
2023/07/12 01:37:49;;;;;;;5.17;1.87;;;;;;;;;;5053344;28;20202;-65
2023/07/12 01:40:15;;;;;;;3.20;1.97;;;;;;;;;;5053570;28;20178;-65
2023/07/12 01:42:41;;;;;;;2.20;1.90;;;;;;;;;;5053228;28;20232;-66
2023/07/12 01:45:07;;;;;;;2.00;1.90;;;;;;;;;;5035261;28;20186;-65
2023/07/12 01:47:33;;;;;;;3.93;1.70;;;;;;;;;;5053310;28;20204;-66
2023/07/12 01:49:59;;;;;;;4.07;2.00;;;;;;;;;;5053296;28;20213;-65
2023/07/12 01:52:25;;;;;;;2.97;1.90;;;;;;;;;;5053067;28;20175;-65
2023/07/12 01:54:51;;;;;;;2.57;2.03;;;;;;;;;;5035168;28;20170;-65
2023/07/12 01:57:17;;;;;;;3.93;2.03;;;;;;;;;;5034208;28;20278;-65
2023/07/12 01:59:43;;;;;;;3.97;2.00;;;;;;;;;;5053020;28;20183;-65
2023/07/12 02:02:09;;;;;;;6.77;2.67;;;;;;;;;;5053018;28;20190;-66
2023/07/12 02:04:35;;;;;;;4.10;2.63;;;;;;;;;;5035268;28;20186;-66
2023/07/12 02:07:03;;;;;;;5.73;2.53;;;;;;;;;;5035231;28;20182;-66
2023/07/12 02:09:32;;;;;;;3.67;2.97;;;;;;;;;;5053928;28;20445;-66
2023/07/12 02:11:58;;;;;;;4.43;2.80;;;;;;;;;;5053170;28;20182;-66
2023/07/12 02:14:24;;;;;;;4.90;2.70;;;;;;;;;;5053330;28;20187;-62
2023/07/12 02:16:50;;;;;;;5.97;2.87;;;;;;;;;;5053177;28;20209;-65
2023/07/12 02:19:16;;;;;;;8.03;3.03;;;;;;;;;;5052702;28;20680;-65
2023/07/12 02:21:42;;;;;;;5.97;3.20;;;;;;;;;;5052971;28;20187;-65
2023/07/12 02:24:08;;;;;;;4.03;3.00;;;;;;;;;;5052779;28;20618;-65
2023/07/12 02:26:35;;;;;;;5.47;2.80;;;;;;;;;;5052712;28;20197;-65
2023/07/12 02:29:01;;;;;;;4.27;3.23;;;;;;;;;;5052904;28;20273;-65
2023/07/12 02:31:30;;;;;;;3.50;2.83;;;;;;;;;;5035141;28;20179;-66
2023/07/12 02:33:56;;;;;;;6.15;3.60;;;;;;;;;;5051929;28;20382;-65
2023/07/12 02:36:22;;;;;;;8.80;3.73;;;;;;;;;;5034779;28;20227;-65
2023/07/12 02:38:48;;;;;;;6.20;3.40;;;;;;;;;;5052512;28;20198;-64
2023/07/12 02:41:15;;;;;;;5.03;3.47;;;;;;;;;;5053017;28;20181;-64
2023/07/12 02:43:41;;;;;;;6.27;3.50;;;;;;;;;;5034756;28;20182;-64
2023/07/12 02:46:07;;;;;;;8.87;3.90;;;;;;;;;;5052842;28;20543;-65
2023/07/12 02:48:33;;;;;;;7.47;4.03;;;;;;;;;;5052518;28;20198;-65
2023/07/12 02:50:59;;;;;;;9.00;4.43;;;;;;;;;;5053132;28;20321;-65
2023/07/12 02:53:25;;;;;;;9.90;4.27;;;;;;;;;;5052657;28;20655;-65
2023/07/12 02:55:51;;;;;;;8.17;4.63;;;;;;;;;;5034763;28;20274;-66
2023/07/12 02:58:17;;;;;;;8.70;4.87;;;;;;;;;;5052490;28;20297;-65
2023/07/12 03:00:43;;;;;;;8.07;4.90;;;;;;;;;;5052747;28;20248;-65
2023/07/12 03:03:09;;;;;;;8.03;5.00;;;;;;;;;;5052445;28;20649;-65
2023/07/12 03:05:39;;;;;;;9.50;4.70;;;;;;;;;;5034497;28;20179;-65
2023/07/12 03:08:05;;;;;;;9.50;4.87;;;;;;;;;;5054258;28;20206;-65
2023/07/12 03:10:32;;;;;;;7.30;4.93;;;;;;;;;;5056339;28;20276;-66
2023/07/12 03:12:58;;;;;;;9.67;5.27;;;;;;;;;;5038171;28;20206;-64
2023/07/12 03:15:24;;;;;;;9.43;4.50;;;;;;;;;;5038286;28;20213;-67
2023/07/12 03:17:50;;;;;;;7.77;4.60;;;;;;;;;;5037955;28;20210;-64
2023/07/12 03:20:16;;;;;;;10.43;4.60;;;;;;;;;;5056038;28;20640;-64
2023/07/12 03:22:42;;;;;;;11.80;4.47;;;;;;;;;;5055868;28;20179;-64
2023/07/12 03:25:08;;;;;;;8.20;4.10;;;;;;;;;;5038034;28;20181;-64
2023/07/12 03:27:34;;;;;;;11.37;4.67;;;;;;;;;;5037900;28;20244;-64
2023/07/12 03:30:00;;;;;;;7.53;4.60;;;;;;;;;;5055646;28;20240;-63
2023/07/12 03:32:26;;;;;;;10.10;5.00;;;;;;;;;;5055811;28;20194;-64
2023/07/12 03:34:52;;;;;;;11.07;4.70;;;;;;;;;;5055921;28;20181;-65
2023/07/12 03:37:18;;;;;;;9.30;5.00;;;;;;;;;;5055622;28;20236;-65
2023/07/12 03:39:44;;;;;;;8.90;4.37;;;;;;;;;;5055631;28;20179;-65
2023/07/12 03:42:10;;;;;;;11.43;4.77;;;;;;;;;;5055890;28;20193;-65
2023/07/12 03:44:36;;;;;;;8.87;5.03;;;;;;;;;;5055885;28;20543;-65
2023/07/12 03:47:02;;;;;;;8.00;4.63;;;;;;;;;;5055504;28;20174;-65
2023/07/12 03:49:29;;;;;;;9.03;5.30;;;;;;;;;;5037742;28;20236;-65
2023/07/12 03:51:55;;;;;;;10.17;4.97;;;;;;;;;;5055445;28;20253;-65
2023/07/12 03:54:21;;;;;;;7.97;4.30;;;;;;;;;;5055625;28;20680;-65
2023/07/12 03:56:47;;;;;;;10.07;5.10;;;;;;;;;;5055629;28;20184;-65
2023/07/12 03:59:14;;;;;;;7.00;4.40;;;;;;;;;;5055349;28;20190;-65
2023/07/12 04:01:39;;;;;;;9.07;4.80;;;;;;;;;;5055388;28;20182;-65
2023/07/12 04:04:06;;;;;;;8.43;4.80;;;;;;;;;;5055504;28;20538;-67
2023/07/12 04:06:32;;;;;;;9.60;5.67;;;;;;;;;;5055181;28;20193;-65
2023/07/12 04:08:58;;;;;;;12.53;6.13;;;;;;;;;;5037334;28;20195;-67
2023/07/12 04:11:26;;;;;;;11.47;5.73;;;;;;;;;;5037575;28;20277;-65
2023/07/12 04:13:52;;;;;;;8.20;4.80;;;;;;;;;;5037161;28;20719;-65
2023/07/12 04:16:19;;;;;;;9.67;5.20;;;;;;;;;;5037129;28;20178;-66
2023/07/12 04:18:45;;;;;;;7.73;4.73;;;;;;;;;;5054434;28;20214;-65
2023/07/12 04:21:11;;;;;;;8.57;4.77;;;;;;;;;;5055230;28;20672;-65
2023/07/12 04:23:37;;;;;;;11.17;4.70;;;;;;;;;;5036969;28;20178;-65
2023/07/12 04:26:04;;;;;;;9.70;5.40;;;;;;;;;;5055041;28;20178;-65
2023/07/12 04:28:31;;;;;;;10.07;5.60;;;;;;;;;;5054901;28;20198;-65
2023/07/12 04:31:02;;;;;;;12.80;6.13;;;;;;;;;;5054586;28;20225;-65
2023/07/12 04:33:28;;;;;;;14.03;5.80;;;;;;;;;;5054736;28;20204;-65
2023/07/12 04:35:54;;;;;;;11.00;5.80;;;;;;;;;;5036711;28;20178;-65
2023/07/12 04:38:20;;;;;;;11.03;6.20;;;;;;;;;;5054567;28;20208;-65
2023/07/12 04:40:52;;;;;;;9.97;5.23;;;;;;;;;;5054716;28;20182;-65
2023/07/12 04:43:18;;;;;;;12.83;6.20;;;;;;;;;;5054893;28;20195;-65
2023/07/12 04:45:45;;;;;;;8.80;5.67;;;;;;;;;;5054947;28;20213;-65
2023/07/12 04:48:11;;;;;;;10.03;4.80;;;;;;;;;;5054541;28;20198;-65
2023/07/12 04:50:37;;;;;;;7.50;4.90;;;;;;;;;;5054336;28;20207;-65
2023/07/12 04:53:03;;;;;;;7.57;4.20;;;;;;;;;;5036346;28;20289;-65
2023/07/12 04:55:30;;;;;;;6.77;4.30;;;;;;;;;;5054274;28;20182;-65
2023/07/12 04:57:56;;;;;;;6.27;3.83;;;;;;;;;;5036304;28;20240;-65
2023/07/12 05:00:25;;;;;;;8.07;3.90;;;;;;;;;;5054158;28;20183;-64
2023/07/12 05:02:52;;;;;;;7.70;4.00;;;;;;;;;;5054171;28;20174;-64
2023/07/12 05:05:18;;;;;;;4.77;3.37;;;;;;;;;;5054033;28;20562;-65
2023/07/12 05:07:44;;;;;;;6.30;3.37;;;;;;;;;;5054109;28;20691;-64
2023/07/12 05:10:11;;;;;;;5.00;2.87;;;;;;;;;;5054265;28;20213;-65
2023/07/12 05:12:37;;;;;;;7.87;3.03;;;;;;;;;;5054158;28;20173;-65
2023/07/12 05:15:04;;;;;;;9.43;3.10;;;;;;;;;;5054341;28;20555;-63
2023/07/12 05:17:31;;;;;;;2.90;2.60;;;;;;;;;;5053625;28;20211;-65
2023/07/12 05:19:57;;;;;;;5.17;2.63;;;;;;;;;;5035870;28;20269;-65
2023/07/12 05:22:23;;;;;;;4.83;2.90;;;;;;;;;;5053824;28;20190;-65
2023/07/12 05:24:49;;;;;;;5.40;2.70;;;;;;;;;;5054197;28;20271;-65
2023/07/12 05:27:15;;;;;;;4.47;3.00;;;;;;;;;;5053603;28;20214;-63
2023/07/12 05:29:41;;;;;;;6.60;3.30;;;;;;;;;;5054000;28;20613;-65
2023/07/12 05:32:07;;;;;;;3.13;2.60;;;;;;;;;;5053433;28;20183;-63
2023/07/12 05:34:33;;;;;;;4.23;2.87;;;;;;;;;;5053675;28;20224;-63
2023/07/12 05:36:59;;;;;;;4.73;3.10;;;;;;;;;;5035511;28;20644;-65
2023/07/12 05:39:25;;;;;;;4.27;3.13;;;;;;;;;;5053229;28;20209;-64
2023/07/12 05:41:51;;;;;;;7.73;3.10;;;;;;;;;;5053276;28;20257;-63
2023/07/12 05:44:17;;;;;;;5.73;3.17;;;;;;;;;;5053326;28;20636;-64
2023/07/12 05:46:43;;;;;;;5.77;3.30;;;;;;;;;;5053801;28;20190;-64
2023/07/12 05:49:09;;;;;;;9.20;3.87;;;;;;;;;;5035286;28;20768;-64
2023/07/12 05:51:35;;;;;;;7.67;3.30;;;;;;;;;;5053224;28;20185;-64
2023/07/12 05:54:01;;;;;;;7.93;3.83;;;;;;;;;;5053422;28;20260;-64
2023/07/12 05:56:27;;;;;;;7.70;3.87;;;;;;;;;;5053018;28;20242;-63
2023/07/12 05:58:53;;;;;;;9.33;3.60;;;;;;;;;;5053956;28;20203;-63
2023/07/12 06:01:20;;;;;;;10.07;4.10;;;;;;;;;;5053799;28;20183;-64
2023/07/12 06:03:46;;;;;;;6.60;4.30;;;;;;;;;;5035413;28;20206;-64
2023/07/12 06:06:12;;;;;;;11.67;4.40;;;;;;;;;;5035308;28;20551;-64
2023/07/12 06:08:38;;;;;;;6.47;3.90;;;;;;;;;;5052933;28;20251;-63
2023/07/12 06:11:04;;;;;;;7.67;4.30;;;;;;;;;;5053074;28;20613;-63
2023/07/12 06:13:31;;;;;;;6.90;3.80;;;;;;;;;;5053313;28;20182;-63
2023/07/12 06:15:57;;;;;;;8.10;4.30;;;;;;;;;;5053271;28;20171;-63
2023/07/12 06:18:23;;;;;;;9.67;4.17;;;;;;;;;;5052827;28;20217;-63
2023/07/12 06:20:54;;;;;;;5.20;3.77;;;;;;;;;;5053226;28;20246;-63
2023/07/12 06:23:20;;;;;;;6.37;3.80;;;;;;;;;;5054264;28;20166;-63
2023/07/12 06:25:46;;;;;;;8.07;3.97;;;;;;;;;;5053485;28;20268;-64
2023/07/12 06:28:15;;;;;;;6.77;3.67;;;;;;;;;;5053516;28;20198;-63
2023/07/12 06:30:41;;;;;;;5.70;3.50;;;;;;;;;;5035142;28;20208;-63
2023/07/12 06:33:07;;;;;;;6.30;3.77;;;;;;;;;;5053010;28;20183;-63
2023/07/12 06:35:33;;;;;;;7.97;3.53;;;;;;;;;;5052787;28;20183;-63
2023/07/12 06:37:59;;;;;;;5.20;3.77;;;;;;;;;;5052767;28;20201;-63
2023/07/12 06:40:25;;;;;;;8.23;3.30;;;;;;;;;;5052970;28;20178;-63
2023/07/12 06:42:51;;;;;;;10.50;3.50;;;;;;;;;;5054384;28;20296;-64
2023/07/12 06:45:17;;;;;;;9.07;3.33;;;;;;;;;;5057124;28;20239;-63
2023/07/12 06:47:43;;;;;;;6.90;3.30;;;;;;;;;;5038910;28;20202;-63
2023/07/12 06:50:09;;;;;;;5.87;3.20;;;;;;;;;;5057304;28;20268;-64
2023/07/12 06:52:35;;;;;;;8.40;3.10;;;;;;;;;;5057364;28;20210;-64
2023/07/12 06:55:01;;;;;;;8.80;2.97;;;;;;;;;;5056619;28;20339;-64
2023/07/12 06:57:27;;;;;;;7.77;3.20;;;;;;;;;;5056751;28;20202;-62
2023/07/12 06:59:53;;;;;;;5.80;2.77;;;;;;;;;;5038504;28;20182;-63
2023/07/12 07:02:19;;;;;;;5.37;3.20;;;;;;;;;;5038675;28;20178;-62
2023/07/12 07:04:45;;;;;;;8.23;3.30;;;;;;;;;;5038688;28;20186;-63
2023/07/12 07:07:11;;;;;;;8.33;2.83;;;;;;;;;;5056866;28;20659;-63
2023/07/12 07:09:38;;;;;;;5.90;2.77;;;;;;;;;;5056405;28;20563;-63
2023/07/12 07:12:05;;;;;;;10.43;3.40;;;;;;;;;;5056573;28;20171;-63
2023/07/12 07:14:31;;;;;;;6.60;2.87;;;;;;;;;;5056200;28;20175;-62
2023/07/12 07:16:57;;;;;;;8.63;3.33;;;;;;;;;;5056093;28;20179;-63
2023/07/12 07:19:23;;;;;;;7.70;3.00;;;;;;;;;;5038474;28;20256;-63
2023/07/12 07:21:50;;;;;;;7.03;2.90;;;;;;;;;;5056207;28;20182;-63
2023/07/12 07:24:16;;;;;;;4.70;2.50;;;;;;;;;;5056811;28;20178;-62
2023/07/12 07:26:43;;;;;;;9.57;2.90;;;;;;;;;;5038356;28;20652;-63
2023/07/12 07:29:09;;;;;;;9.77;3.00;;;;;;;;;;5038303;28;20198;-63
2023/07/12 07:31:35;;;;;;;6.80;3.27;;;;;;;;;;5056249;28;20262;-63
2023/07/12 07:34:00;;;;;;;9.50;3.20;;;;;;;;;;5056383;28;20209;-63
2023/07/12 07:36:26;;;;;;;5.53;2.97;;;;;;;;;;5056492;28;20170;-63
2023/07/12 07:38:53;;;;;;;3.97;2.70;;;;;;;;;;5056508;28;20629;-63
2023/07/12 07:41:19;;;;;;;8.17;2.90;;;;;;;;;;5039209;28;20659;-62
2023/07/12 07:43:45;;;;;;;4.87;2.63;;;;;;;;;;5056515;28;20174;-63
2023/07/12 07:46:12;;;;;;;8.10;3.20;;;;;;;;;;5055930;28;20179;-63
2023/07/12 07:48:38;;;;;;;5.30;2.40;;;;;;;;;;5055886;28;20257;-64
2023/07/12 07:51:04;;;;;;;6.77;2.77;;;;;;;;;;5056121;28;20608;-64
2023/07/12 07:53:30;;;;;;;4.87;2.37;;;;;;;;;;5055174;28;20175;-63
2023/07/12 07:55:55;;;;;;;5.70;2.33;;;;;;;;;;5054998;28;20206;-64
2023/07/12 07:58:22;;;;;;;4.60;2.33;;;;;;;;;;5037724;28;20574;-65
2023/07/12 08:00:48;;;;;;;7.30;2.50;;;;;;;;;;5037642;28;20183;-64
2023/07/12 08:03:14;;;;;;;5.97;2.97;;;;;;;;;;5055389;28;20185;-64
2023/07/12 08:05:40;;;;;;;5.77;2.70;;;;;;;;;;5055751;28;20232;-64
2023/07/12 08:08:06;;;;;;;9.67;2.90;;;;;;;;;;5055474;28;20301;-65
2023/07/12 08:10:32;;;;;;;13.47;3.53;;;;;;;;;;5037053;28;20751;-64
2023/07/12 08:12:59;;;;;;;4.97;2.73;;;;;;;;;;5055395;28;20269;-65
2023/07/12 08:15:25;;;;;;;7.07;2.90;;;;;;;;;;5054996;28;20560;-64
2023/07/12 08:17:51;;;;;;;8.13;3.03;;;;;;;;;;5054978;28;20210;-65
2023/07/12 08:20:17;;;;;;;6.90;3.20;;;;;;;;;;5037176;28;20215;-64
2023/07/12 08:22:44;;;;;;;6.40;2.93;;;;;;;;;;5037115;28;20189;-64
2023/07/12 08:25:10;;;;;;;6.03;2.70;;;;;;;;;;5037014;28;20316;-65
2023/07/12 08:27:36;;;;;;;7.17;2.73;;;;;;;;;;5055113;28;20209;-64
2023/07/12 08:30:03;;;;;;;4.87;2.80;;;;;;;;;;5055518;28;20206;-64
2023/07/12 08:32:30;;;;;;;7.13;2.90;;;;;;;;;;5055052;28;20166;-64
2023/07/12 08:34:57;;;;;;;8.20;3.00;;;;;;;;;;5054841;28;20179;-65
2023/07/12 08:37:23;;;;;;;5.13;2.77;;;;;;;;;;5054685;28;20175;-64
2023/07/12 08:39:49;;;;;;;3.90;2.50;;;;;;;;;;5054601;28;20190;-64
2023/07/12 08:42:19;;;;;;;9.13;3.00;;;;;;;;;;5054742;28;20266;-65
2023/07/12 08:44:46;;;;;;;7.73;3.20;;;;;;;;;;5055051;28;20525;-64
2023/07/12 08:47:16;;;;;;;7.53;3.23;;;;;;;;;;5054305;28;20645;-64
2023/07/12 08:49:42;;;;;;;5.27;2.50;;;;;;;;;;5036668;28;20198;-64
2023/07/12 08:52:12;;;;;;;4.80;2.73;;;;;;;;;;5036439;28;20178;-64
2023/07/12 08:54:38;;;;;;;8.77;2.67;;;;;;;;;;5054368;28;20660;-64
2023/07/12 08:57:04;;;;;;;6.73;2.70;;;;;;;;;;5054199;28;20320;-65
2023/07/12 08:59:30;;;;;;;7.43;2.77;;;;;;;;;;5055059;28;20209;-67
2023/07/12 09:01:59;;;;;;;4.70;2.83;;;;;;;;;;5054859;28;20617;-65
2023/07/12 09:04:26;;;;;;;5.83;2.90;;;;;;;;;;5054494;28;20634;-65
2023/07/12 09:06:57;;;;;;;7.57;2.80;;;;;;;;;;5054230;28;20628;-65
2023/07/12 09:09:23;;;;;;;6.80;2.57;;;;;;;;;;5054063;28;20229;-65
2023/07/12 09:11:50;;;;;;;5.20;2.50;;;;;;;;;;5036360;28;20179;-64
2023/07/12 09:14:20;;;;;;;11.63;2.93;;;;;;;;;;5054407;28;20189;-65
2023/07/12 09:16:51;;;;;;;9.07;2.90;;;;;;;;;;5053901;28;20179;-65
2023/07/12 09:19:19;;;;;;;4.63;2.20;;;;;;;;;;5053658;28;20218;-65
2023/07/12 09:21:50;;;;;;;4.90;2.60;;;;;;;;;;5053802;28;20174;-64
2023/07/12 09:24:23;;;;;;;5.27;2.57;;;;;;;;;;5053807;28;20253;-63
2023/07/12 09:26:50;;;;;;;5.60;2.70;;;;;;;;;;5054012;28;20174;-64
2023/07/12 09:29:25;;;;;;;6.40;2.80;;;;;;;;;;5053918;28;20217;-64
2023/07/12 09:31:54;;;;;;;7.47;2.60;;;;;;;;;;5053927;28;20169;-64
2023/07/12 09:34:21;;;;;;;6.87;2.30;;;;;;;;;;5053818;28;20324;-66
2023/07/12 09:36:54;;;;;;;5.60;2.50;;;;;;;;;;5053637;28;20250;-65
2023/07/12 09:39:20;;;;;;;6.00;2.60;;;;;;;;;;5035824;28;20202;-65
2023/07/12 09:41:51;;;;;;;6.30;2.77;;;;;;;;;;5053577;28;20178;-66
2023/07/12 09:44:17;;;;;;;4.80;2.43;;;;;;;;;;5053742;28;20171;-64
2023/07/12 09:46:49;;;;;;;4.93;2.33;;;;;;;;;;5035825;28;20174;-64
2023/07/12 09:49:16;;;;;;;10.27;2.63;;;;;;;;;;5053568;28;20637;-65
2023/07/12 09:52:03;;;;;;;4.00;2.13;;;;;;;;;;5053913;28;20220;-65
2023/07/12 09:54:32;;;;;;;6.10;2.43;;;;;;;;;;5053924;28;20158;-65
2023/07/12 09:57:03;;;;;;;7.13;2.50;;;;;;;;;;5053327;28;20171;-63
2023/07/12 09:59:38;;;;;;;5.43;2.23;;;;;;;;;;5053067;28;20221;-64
2023/07/12 10:02:16;;;;;;;6.07;2.40;;;;;;;;;;5035234;28;20181;-64
2023/07/12 10:04:49;;;;;;;5.73;2.17;;;;;;;;;;5053709;28;20169;-64
2023/07/12 10:07:28;;;;;;;7.53;2.23;;;;;;;;;;5053353;28;20171;-63
2023/07/12 10:09:54;;;;;;;6.57;2.60;;;;;;;;;;5035210;28;20229;-64
2023/07/12 10:12:37;;;;;;;5.60;2.47;;;;;;;;;;5035729;28;20174;-65
2023/07/12 10:15:03;;;;;;;6.67;2.43;;;;;;;;;;5053858;28;20202;-65
2023/07/12 10:17:32;;;;;;;17.83;2.83;;;;;;;;;;5052347;28;20633;-64
2023/07/12 10:19:58;;;;;;;6.07;2.20;;;;;;;;;;5053960;28;20178;-65
2023/07/12 10:22:30;;;;;;;6.20;2.50;;;;;;;;;;5053254;28;20520;-65
2023/07/12 10:24:58;;;;;;;7.10;2.40;;;;;;;;;;5052991;28;20206;-65
2023/07/12 10:27:25;;;;;;;6.03;2.50;;;;;;;;;;5035232;28;20193;-65
2023/07/12 10:29:54;;;;;;;8.73;2.37;;;;;;;;;;5053301;28;20241;-65
2023/07/12 10:32:46;;;;;;;4.80;2.10;;;;;;;;;;5035360;28;20182;-64
2023/07/12 10:35:15;;;;;;;4.50;2.30;;;;;;;;;;5049745;28;20274;-65
2023/07/12 10:37:47;;;;;;;6.00;2.33;;;;;;;;;;5053848;28;20277;-65
2023/07/12 10:40:18;;;;;;;3.70;1.90;;;;;;;;;;5035442;28;20193;-65
2023/07/12 10:42:51;;;;;;;5.30;2.00;;;;;;;;;;5053777;28;20251;-64
2023/07/12 10:45:24;;;;;;;7.00;2.87;;;;;;;;;;5054351;28;20228;-64
2023/07/12 10:47:51;;;;;;;5.67;2.03;;;;;;;;;;5054236;28;20240;-64
2023/07/12 10:50:30;;;;;;;4.27;2.00;;;;;;;;;;5052852;28;20205;-64
2023/07/12 10:52:59;;;;;;;3.17;1.80;;;;;;;;;;5035149;28;20655;-65
2023/07/12 10:56:03;;;;;;;6.57;1.93;;;;;;;;;;5053233;28;20610;-64
2023/07/12 10:58:44;;;;;;;4.03;1.93;;;;;;;;;;5034883;28;20247;-64
2023/07/12 11:01:30;;;;;;;4.20;2.00;;;;;;;;;;5052821;28;20170;-64
2023/07/12 11:04:06;;;;;;;4.50;1.90;;;;;;;;;;5034759;28;20271;-65
2023/07/12 11:06:33;;;;;;;6.27;2.20;;;;;;;;;;5053022;28;20259;-64
2023/07/12 11:08:59;;;;;;;4.27;2.00;;;;;;;;;;5052519;28;20209;-64
2023/07/12 11:11:30;;;;;;;5.90;2.33;;;;;;;;;;5034645;28;20202;-64
2023/07/12 11:14:14;;;;;;;5.37;2.30;;;;;;;;;;5034763;28;20182;-65
2023/07/12 11:16:49;;;;;;;5.40;2.30;;;;;;;;;;5052741;28;20644;-64
2023/07/12 11:19:33;;;;;;;3.87;2.20;;;;;;;;;;5052409;28;20679;-64
2023/07/12 11:22:03;;;;;;;5.60;2.30;;;;;;;;;;5052817;28;20657;-64
2023/07/12 11:24:29;;;;;;;3.00;1.83;;;;;;;;;;5052813;28;20550;-65
2023/07/12 11:26:59;;;;;;;4.93;2.27;;;;;;;;;;5034642;28;20209;-65
2023/07/12 11:29:25;;;;;;;4.40;1.97;;;;;;;;;;5036355;28;20221;-65
2023/07/12 11:32:10;;;;;;;7.77;2.00;;;;;;;;;;5038002;28;20175;-65
2023/07/12 11:34:39;;;;;;;4.93;2.20;;;;;;;;;;5037944;28;20182;-64
2023/07/12 11:37:05;;;;;;;4.13;2.10;;;;;;;;;;5037896;28;20178;-65
2023/07/12 11:39:32;;;;;;;4.67;1.90;;;;;;;;;;5055633;28;20268;-65
2023/07/12 11:41:59;;;;;;;4.20;2.00;;;;;;;;;;5056179;28;20210;-65
2023/07/12 11:44:25;;;;;;;3.93;1.80;;;;;;;;;;5037880;28;20190;-65
2023/07/12 11:46:52;;;;;;;3.33;1.77;;;;;;;;;;5055964;28;20726;-65
2023/07/12 11:49:19;;;;;;;6.32;1.92;;;;;;;;;;5054613;28;20847;-66
2023/07/12 11:51:47;;;;;;;2.97;1.93;;;;;;;;;;5055858;28;20734;-65
2023/07/12 11:54:24;;;;;;;3.27;1.70;;;;;;;;;;5037671;28;20209;-66
2023/07/12 11:56:51;;;;;;;6.67;1.83;;;;;;;;;;5055559;28;20167;-66
2023/07/12 11:59:22;;;;;;;3.97;2.00;;;;;;;;;;5055572;28;20671;-65
2023/07/12 12:01:48;;;;;;;4.13;2.00;;;;;;;;;;5036741;28;20484;-65
2023/07/12 12:04:21;;;;;;;4.67;1.80;;;;;;;;;;5055813;28;20210;-65
2023/07/12 12:06:49;;;;;;;3.37;1.80;;;;;;;;;;5055808;28;20174;-65
2023/07/12 12:09:15;;;;;;;4.23;1.90;;;;;;;;;;5038611;28;20202;-65
2023/07/12 12:11:41;;;;;;;5.00;2.10;;;;;;;;;;5054252;28;20374;-64
2023/07/12 12:14:13;;;;;;;10.07;2.03;;;;;;;;;;5055303;28;20552;-66
2023/07/12 12:16:39;;;;;;;4.20;1.87;;;;;;;;;;5055592;28;20651;-65
2023/07/12 12:19:09;;;;;;;2.47;1.57;;;;;;;;;;5037043;28;20280;-66
2023/07/12 12:21:46;;;;;;;5.43;1.67;;;;;;;;;;5055371;28;20178;-65
2023/07/12 12:24:16;;;;;;;4.97;1.97;;;;;;;;;;5055353;28;20166;-65
2023/07/12 12:26:43;;;;;;;3.57;1.70;;;;;;;;;;5037144;28;20647;-66
2023/07/12 12:29:16;;;;;;;4.93;2.17;;;;;;;;;;5054937;28;20198;-66
2023/07/12 12:31:55;;;;;;;6.80;1.93;;;;;;;;;;5054921;28;20163;-65
2023/07/12 12:34:22;;;;;;;3.30;1.60;;;;;;;;;;5055265;28;20175;-67
2023/07/12 12:36:58;;;;;;;6.40;1.83;;;;;;;;;;5037041;28;20714;-65
2023/07/12 12:39:24;;;;;;;6.43;1.67;;;;;;;;;;5036860;28;20194;-65
2023/07/12 12:42:06;;;;;;;4.73;1.70;;;;;;;;;;5054734;28;20257;-63
2023/07/12 12:44:36;;;;;;;3.83;1.70;;;;;;;;;;5055569;28;20182;-65
2023/07/12 12:47:13;;;;;;;4.70;1.93;;;;;;;;;;5054742;28;20182;-63
2023/07/12 12:49:39;;;;;;;4.83;1.77;;;;;;;;;;5036731;28;20202;-65
2023/07/12 12:52:28;;;;;;;3.97;1.60;;;;;;;;;;5036802;28;20710;-65
2023/07/12 12:54:54;;;;;;;6.77;1.67;;;;;;;;;;5036673;28;20166;-65
2023/07/12 12:57:20;;;;;;;2.80;1.83;;;;;;;;;;5054614;28;20178;-65
2023/07/12 12:59:47;;;;;;;4.47;1.77;;;;;;;;;;5054799;28;20221;-66
2023/07/12 13:02:16;;;;;;;3.03;1.93;;;;;;;;;;5054143;28;20178;-65
2023/07/12 13:04:43;;;;;;;5.23;1.70;;;;;;;;;;5054082;28;20182;-66
2023/07/12 13:07:17;;;;;;;5.10;1.80;;;;;;;;;;5054349;28;20188;-66
2023/07/12 13:09:43;;;;;;;5.07;1.93;;;;;;;;;;5054097;28;20189;-65
2023/07/12 13:12:15;;;;;;;6.30;1.93;;;;;;;;;;5054041;28;20178;-65
2023/07/12 13:14:41;;;;;;;3.10;2.00;;;;;;;;;;5036041;28;20163;-66
2023/07/12 13:17:15;;;;;;;4.77;1.93;;;;;;;;;;5052797;28;20389;-65
2023/07/12 13:19:41;;;;;;;9.20;1.97;;;;;;;;;;5054010;28;20205;-65
2023/07/12 13:22:15;;;;;;;5.38;2.00;;;;;;;;;;5052518;28;20384;-66
2023/07/12 13:24:41;;;;;;;2.83;1.73;;;;;;;;;;5034749;28;20382;-65
2023/07/12 13:27:17;;;;;;;6.73;1.80;;;;;;;;;;5035646;28;20282;-66
2023/07/12 13:29:43;;;;;;;;;;;;;;;;;;5036000;28;20491;-65
2023/07/12 13:32:12;;;;;;;3.03;1.80;;;;;;;;;;5034436;28;20389;-65
2023/07/12 13:34:37;;;;;;;4.13;2.00;;;;;;;;;;5053563;28;20175;-65
2023/07/12 13:37:04;;;;;;;3.20;1.77;;;;;;;;;;5053526;28;20644;-66
2023/07/12 13:39:31;;;;;;;4.17;1.90;;;;;;;;;;5035556;28;20202;-66
2023/07/12 13:41:57;;;;;;;5.03;2.20;;;;;;;;;;5053430;28;20249;-66
2023/07/12 13:44:24;;;;;;;3.90;1.70;;;;;;;;;;5053373;28;20202;-66
2023/07/12 13:46:50;;;;;;;;;;;;;;;;;;5053821;28;20025;-65
2023/07/12 13:49:16;;;;;;;;;;;;;;;;;;5053738;28;20007;-66
2023/07/12 13:51:42;;;;;;;;;;;;;;;;;;5053702;28;19939;-65
2023/07/12 13:54:08;;;;;;;;;;;;;;;;;;5054073;28;19904;-66
2023/07/12 13:56:34;;;;;;;;;;;;;;;;;;5053668;28;19995;-65
2023/07/12 13:59:00;;;;;;;;;;;;;;;;;;5053529;28;20371;-65
2023/07/12 14:01:26;;;;;;;;;;;;;;;;;;5053623;28;19927;-65
2023/07/12 14:03:52;;;;;;;;;;;;;;;;;;5053865;28;20045;-65
2023/07/12 14:06:18;;;;;;;;;;;;;;;;;;5053740;28;19943;-65
2023/07/12 14:08:44;;;;;;;;;;;;;;;;;;5035802;28;19943;-65
2023/07/12 14:11:10;;;;;;;;;;;;;;;;;;5054089;28;19913;-65
2023/07/12 14:13:36;;;;;;;;;;;;;;;;;;5054873;28;19905;-65
2023/07/12 14:16:02;;;;;;;;;;;;;;;;;;5054368;28;19927;-66
2023/07/12 14:18:28;;;;;;;;;;;;;;;;;;5035513;28;19916;-66
2023/07/12 14:20:54;;;;;;;;;;;;;;;;;;5053506;28;19999;-66
2023/07/12 14:23:19;;;;;;;;;;;;;;;;;;5035814;28;20090;-65
2023/07/12 14:25:45;;;;;;;;;;;;;;;;;;5053736;28;19904;-66
2023/07/12 14:28:11;;;;;;;;;;;;;;;;;;5053104;28;19904;-66
2023/07/12 14:30:37;;;;;;;;;;;;;;;;;;5053228;28;19962;-66
2023/07/12 14:33:04;;;;;;;;;;;;;;;;;;5045858;23;19928;-67
2023/07/12 14:35:30;;;;;;;;;;;;;;;;;;5033678;28;19905;-70
2023/07/12 14:37:56;;;;;;;;;;;;;;;;;;5033471;28;19912;-71
2023/07/12 14:40:22;;;;;;;;;;;;;;;;;;5033517;28;20268;-69
2023/07/12 14:42:48;;;;;;;;;;;;;;;;;;5015702;28;19905;-68
2023/07/12 14:45:14;;;;;;;;;;;;;;;;;;5015368;28;20317;-69
2023/07/12 14:47:40;;;;;;;;;;;;;;;;;;5015492;28;20012;-69
2023/07/12 14:50:06;;;;;;;;;;;;;;;;;;5015368;28;19959;-69
2023/07/12 14:52:32;;;;;;;;;;;;;;;;;;5033159;28;19905;-69
2023/07/12 14:54:58;;;;;;;;;;;;;;;;;;5015541;28;20379;-70